createdAt,value
2022-10-23T00:05:04.126Z,97773.28
2022-10-23T00:15:07.079Z,97753.69
2022-10-23T00:25:10.192Z,97755.50
2022-10-23T00:35:12.774Z,97742.41
2022-10-23T00:45:22.533Z,97745.09
2022-10-23T00:55:27.128Z,97750.91
2022-10-23T01:05:36.764Z,97742.44
2022-10-23T01:15:53.284Z,97715.50
2022-10-23T01:26:19.522Z,97709.28
2022-10-23T01:36:27.125Z,97702.91
2022-10-23T01:46:32.590Z,97704.09
2022-10-23T01:56:39.852Z,97698.72
2022-10-23T02:06:42.484Z,97690.16
2022-10-23T02:16:49.834Z,97682.13
2022-10-23T02:26:56.227Z,97674.91
2022-10-23T02:36:58.856Z,97659.84
2022-10-23T02:47:25.086Z,97650.47
2022-10-23T02:57:35.296Z,97634.28
2022-10-23T03:07:40.437Z,97631.59
2022-10-23T03:17:43.017Z,97620.78
2022-10-23T03:27:45.424Z,97597.00
2022-10-23T03:37:47.905Z,97605.13
2022-10-23T03:47:52.015Z,97592.41
2022-10-23T03:57:57.360Z,97600.50
2022-10-23T04:07:59.611Z,97597.00
2022-10-23T04:18:02.334Z,97586.41
2022-10-23T04:28:04.863Z,97586.13
2022-10-23T04:38:07.175Z,97589.16
2022-10-23T04:48:09.628Z,97591.09
2022-10-23T04:58:12.056Z,97598.13
2022-10-23T05:08:17.860Z,97595.97
2022-10-23T05:18:22.464Z,97591.66
2022-10-23T05:28:24.794Z,97591.06
2022-10-23T05:38:29.930Z,97601.63
2022-10-23T05:48:35.224Z,97587.56
2022-10-23T05:58:37.801Z,97582.41
2022-10-23T06:08:40.041Z,97581.88
2022-10-23T06:18:44.332Z,97577.28
2022-10-23T06:28:46.670Z,97577.53
2022-10-23T06:38:49.881Z,97568.63
2022-10-23T06:48:52.585Z,97567.84
2022-10-23T06:58:55.448Z,97571.34
2022-10-23T07:08:57.922Z,97572.22
2022-10-23T07:19:02.562Z,97577.31
2022-10-23T07:29:04.911Z,97578.63
2022-10-23T07:39:07.316Z,97567.72
2022-10-23T07:49:11.549Z,97580.25
2022-10-23T07:59:14.156Z,97575.41
2022-10-23T08:09:16.674Z,97579.75
2022-10-23T08:19:19.138Z,97578.06
2022-10-23T08:29:21.914Z,97567.69
2022-10-23T08:39:24.471Z,97563.25
2022-10-23T08:49:51.221Z,97538.84
2022-10-23T09:00:00.423Z,97548.56
2022-10-23T09:10:34.828Z,97531.75
2022-10-23T09:20:37.831Z,97533.72
2022-10-23T09:30:43.329Z,97525.56
2022-10-23T09:40:46.411Z,97513.12
2022-10-23T09:50:59.532Z,97511.47
2022-10-23T10:01:02.988Z,97503.91
2022-10-23T10:11:11.193Z,97496.94
2022-10-23T10:21:24.349Z,97507.88
2022-10-23T10:31:34.075Z,97527.50
2022-10-23T10:41:56.488Z,97529.38
2022-10-23T10:52:08.285Z,97518.75
2022-10-23T11:02:27.204Z,97504.69
2022-10-23T11:12:29.955Z,97486.72
2022-10-23T11:22:37.571Z,97461.47
2022-10-23T11:33:08.856Z,97456.81
2022-10-23T11:43:11.396Z,97434.66
2022-10-23T11:53:41.221Z,97433.75
2022-10-23T12:04:06.838Z,97418.34
2022-10-23T12:14:29.953Z,97388.66
2022-10-23T12:25:04.606Z,97365.66
2022-10-23T12:35:25.263Z,97353.38
2022-10-23T12:45:33.171Z,97328.81
2022-10-23T12:56:01.859Z,97314.22
2022-10-23T13:06:05.587Z,97316.97
2022-10-23T13:16:20.771Z,97316.00
2022-10-23T13:26:32.895Z,97314.06
2022-10-23T13:36:39.860Z,97277.88
2022-10-23T13:46:43.317Z,97262.06
2022-10-23T13:56:45.680Z,97266.84
2022-10-23T14:06:48.452Z,97240.00
2022-10-23T14:16:53.556Z,97253.34
2022-10-23T14:26:58.276Z,97268.00
2022-10-23T14:37:08.843Z,97265.44
2022-10-23T14:47:12.365Z,97288.31
2022-10-23T14:57:17.211Z,97298.84
2022-10-23T15:07:20.062Z,97296.13
2022-10-23T15:17:23.334Z,97249.84
2022-10-23T15:27:26.485Z,97248.28
2022-10-23T15:37:29.008Z,97199.97
2022-10-23T15:47:31.529Z,97173.84
2022-10-23T15:57:34.329Z,97166.78
2022-10-23T16:07:37.324Z,97162.78
2022-10-23T16:17:40.016Z,97165.63
2022-10-23T16:27:43.597Z,97167.06
2022-10-23T16:37:46.762Z,97190.69
2022-10-23T16:47:49.610Z,97228.91
2022-10-23T16:57:52.421Z,97253.12
2022-10-23T17:07:55.092Z,97297.25
2022-10-23T17:17:58.708Z,97308.16
2022-10-23T17:28:01.120Z,97322.44
2022-10-23T17:38:04.046Z,97348.63
2022-10-23T17:48:07.367Z,97367.84
2022-10-23T17:58:09.954Z,97387.59
2022-10-23T18:08:12.649Z,97421.22
2022-10-23T18:18:15.552Z,97451.78
2022-10-23T18:28:18.206Z,97481.44
2022-10-23T18:38:20.911Z,97430.47
2022-10-23T18:48:23.364Z,97443.53
2022-10-23T18:58:25.913Z,97397.38
2022-10-23T19:08:29.411Z,97413.41
2022-10-23T19:18:34.410Z,97382.97
2022-10-23T19:28:40.694Z,97377.78
2022-10-23T19:38:43.313Z,97375.66
2022-10-23T19:48:47.281Z,97398.22
2022-10-23T19:58:50.699Z,97373.38
2022-10-23T20:08:54.650Z,97424.44
2022-10-23T20:18:58.266Z,97426.53
2022-10-23T20:29:01.427Z,97436.22
2022-10-23T20:39:10.052Z,97453.59
2022-10-23T20:49:14.012Z,97459.53
2022-10-23T20:59:19.057Z,97434.06
2022-10-23T21:09:22.233Z,97445.97
2022-10-23T21:19:24.881Z,97442.25
2022-10-23T21:29:27.510Z,97435.94
2022-10-23T21:39:30.149Z,97436.31
2022-10-23T21:49:32.691Z,97450.22
2022-10-23T21:59:36.071Z,97458.13
2022-10-23T22:09:38.878Z,97489.12
2022-10-23T22:19:41.706Z,97478.22
2022-10-23T22:29:44.225Z,97449.53
2022-10-23T22:39:46.949Z,97446.03
2022-10-23T22:49:49.375Z,97434.91
2022-10-23T22:59:51.796Z,97435.59
2022-10-23T23:09:54.149Z,97410.88
2022-10-23T23:19:56.692Z,97416.09
2022-10-23T23:29:59.136Z,97411.34
2022-10-23T23:40:01.309Z,97441.72
2022-10-23T23:50:05.227Z,97424.13
